sensor_id;sensor_type;location;lat;lon;timestamp;temperature;humidity
12604;DHT22;6367;52.508;13.284;2022-08-11T00:01:12;24.50;63.00
12604;DHT22;6367;52.508;13.284;2022-08-11T00:04:08;24.50;63.00
12604;DHT22;6367;52.508;13.284;2022-08-11T00:06:36;24.50;63.20
12604;DHT22;6367;52.508;13.284;2022-08-11T00:09:11;24.40;63.00
12604;DHT22;6367;52.508;13.284;2022-08-11T00:11:51;24.40;63.20
12604;DHT22;6367;52.508;13.284;2022-08-11T00:17:03;24.50;63.20
12604;DHT22;6367;52.508;13.284;2022-08-11T00:19:35;24.40;63.30
12604;DHT22;6367;52.508;13.284;2022-08-11T00:22:02;24.50;63.80
12604;DHT22;6367;52.508;13.284;2022-08-11T00:24:33;24.50;64.00
12604;DHT22;6367;52.508;13.284;2022-08-11T00:26:59;24.40;63.70
12604;DHT22;6367;52.508;13.284;2022-08-11T00:29:25;24.40;64.00
12604;DHT22;6367;52.508;13.284;2022-08-11T00:31:53;24.40;64.30
12604;DHT22;6367;52.508;13.284;2022-08-11T00:34:25;24.30;64.20
12604;DHT22;6367;52.508;13.284;2022-08-11T00:36:52;24.30;64.10
12604;DHT22;6367;52.508;13.284;2022-08-11T00:39:21;24.30;64.00
12604;DHT22;6367;52.508;13.284;2022-08-11T00:44:54;24.20;64.30
12604;DHT22;6367;52.508;13.284;2022-08-11T01:04:19;24.10;65.30
12604;DHT22;6367;52.508;13.284;2022-08-11T01:07:07;24.10;65.50
12604;DHT22;6367;52.508;13.284;2022-08-11T01:12:34;24.10;65.70
12604;DHT22;6367;52.508;13.284;2022-08-11T01:18:32;24.00;65.90
12604;DHT22;6367;52.508;13.284;2022-08-11T01:21:08;23.90;66.10
12604;DHT22;6367;52.508;13.284;2022-08-11T01:47:33;23.50;66.30
12604;DHT22;6367;52.508;13.284;2022-08-11T01:53:08;23.50;66.40
12604;DHT22;6367;52.508;13.284;2022-08-11T01:56:04;23.40;65.90
12604;DHT22;6367;52.508;13.284;2022-08-11T02:01:36;23.30;65.20
12604;DHT22;6367;52.508;13.284;2022-08-11T02:04:16;23.20;65.70
12604;DHT22;6367;52.508;13.284;2022-08-11T02:18:27;23.30;66.40
12604;DHT22;6367;52.508;13.284;2022-08-11T02:21:45;23.30;66.00
12604;DHT22;6367;52.508;13.284;2022-08-11T02:24:42;23.20;66.60
12604;DHT22;6367;52.508;13.284;2022-08-11T02:27:23;23.30;67.20
12604;DHT22;6367;52.508;13.284;2022-08-11T02:30:08;23.20;66.40
12604;DHT22;6367;52.508;13.284;2022-08-11T02:32:50;23.20;66.40
12604;DHT22;6367;52.508;13.284;2022-08-11T02:39:04;23.10;66.80
12604;DHT22;6367;52.508;13.284;2022-08-11T02:54:06;23.10;67.80
12604;DHT22;6367;52.508;13.284;2022-08-11T03:02:13;23.10;66.70
12604;DHT22;6367;52.508;13.284;2022-08-11T03:05:00;23.10;67.00
12604;DHT22;6367;52.508;13.284;2022-08-11T03:10:28;23.00;66.80
12604;DHT22;6367;52.508;13.284;2022-08-11T03:13:21;23.00;66.70
12604;DHT22;6367;52.508;13.284;2022-08-11T03:16:24;23.00;66.70
12604;DHT22;6367;52.508;13.284;2022-08-11T03:19:41;22.90;66.90
12604;DHT22;6367;52.508;13.284;2022-08-11T03:22:25;22.90;66.90
12604;DHT22;6367;52.508;13.284;2022-08-11T03:25:01;23.00;66.90
12604;DHT22;6367;52.508;13.284;2022-08-11T03:30:34;23.00;66.70
12604;DHT22;6367;52.508;13.284;2022-08-11T03:33:24;23.00;66.40
12604;DHT22;6367;52.508;13.284;2022-08-11T03:36:19;23.10;66.40
12604;DHT22;6367;52.508;13.284;2022-08-11T03:41:54;23.20;66.20
12604;DHT22;6367;52.508;13.284;2022-08-11T03:53:13;22.90;65.60
12604;DHT22;6367;52.508;13.284;2022-08-11T04:12:44;22.80;65.90
12604;DHT22;6367;52.508;13.284;2022-08-11T04:15:36;22.80;65.80
12604;DHT22;6367;52.508;13.284;2022-08-11T04:21:19;22.70;65.90
12604;DHT22;6367;52.508;13.284;2022-08-11T04:44:44;22.80;66.90
12604;DHT22;6367;52.508;13.284;2022-08-11T04:51:00;22.80;66.50
12604;DHT22;6367;52.508;13.284;2022-08-11T04:53:59;22.80;66.50
12604;DHT22;6367;52.508;13.284;2022-08-11T04:56:47;22.80;66.80
12604;DHT22;6367;52.508;13.284;2022-08-11T04:59:52;22.80;66.90
12604;DHT22;6367;52.508;13.284;2022-08-11T05:06:25;22.80;66.80
12604;DHT22;6367;52.508;13.284;2022-08-11T05:14:31;22.90;66.60
12604;DHT22;6367;52.508;13.284;2022-08-11T05:17:26;23.10;66.10
12604;DHT22;6367;52.508;13.284;2022-08-11T05:20:11;23.00;66.20
12604;DHT22;6367;52.508;13.284;2022-08-11T05:23:03;23.10;66.20
12604;DHT22;6367;52.508;13.284;2022-08-11T05:25:51;23.00;65.90
12604;DHT22;6367;52.508;13.284;2022-08-11T05:28:43;23.10;65.70
12604;DHT22;6367;52.508;13.284;2022-08-11T05:31:35;23.00;65.90
12604;DHT22;6367;52.508;13.284;2022-08-11T05:34:25;23.10;66.00
12604;DHT22;6367;52.508;13.284;2022-08-11T05:37:17;23.70;66.30
12604;DHT22;6367;52.508;13.284;2022-08-11T05:39:47;23.10;65.50
12604;DHT22;6367;52.508;13.284;2022-08-11T05:42:33;23.10;66.40
12604;DHT22;6367;52.508;13.284;2022-08-11T05:45:19;23.10;66.50
12604;DHT22;6367;52.508;13.284;2022-08-11T05:48:05;23.20;66.40
12604;DHT22;6367;52.508;13.284;2022-08-11T05:51:00;23.30;66.50
12604;DHT22;6367;52.508;13.284;2022-08-11T05:53:54;23.50;66.00
12604;DHT22;6367;52.508;13.284;2022-08-11T05:56:51;23.60;65.60
12604;DHT22;6367;52.508;13.284;2022-08-11T05:59:23;23.60;65.40
12604;DHT22;6367;52.508;13.284;2022-08-11T06:01:50;23.70;65.70
12604;DHT22;6367;52.508;13.284;2022-08-11T06:04:20;23.60;65.70
12604;DHT22;6367;52.508;13.284;2022-08-11T06:06:50;23.60;65.30
12604;DHT22;6367;52.508;13.284;2022-08-11T06:09:28;23.70;65.00
12604;DHT22;6367;52.508;13.284;2022-08-11T06:11:58;23.70;64.90
12604;DHT22;6367;52.508;13.284;2022-08-11T06:14:25;23.70;65.40
12604;DHT22;6367;52.508;13.284;2022-08-11T06:16:55;23.80;65.30
12604;DHT22;6367;52.508;13.284;2022-08-11T06:19:21;24.40;65.40
12604;DHT22;6367;52.508;13.284;2022-08-11T06:21:48;24.10;65.10
12604;DHT22;6367;52.508;13.284;2022-08-11T06:24:16;24.00;64.90
12604;DHT22;6367;52.508;13.284;2022-08-11T06:26:50;24.40;65.20
12604;DHT22;6367;52.508;13.284;2022-08-11T06:29:16;24.30;64.30
12604;DHT22;6367;52.508;13.284;2022-08-11T06:32:02;24.30;64.90
12604;DHT22;6367;52.508;13.284;2022-08-11T06:34:41;24.30;64.50
12604;DHT22;6367;52.508;13.284;2022-08-11T06:43:17;24.60;64.10
12604;DHT22;6367;52.508;13.284;2022-08-11T06:45:52;24.80;63.80
12604;DHT22;6367;52.508;13.284;2022-08-11T06:48:21;25.10;63.90
12604;DHT22;6367;52.508;13.284;2022-08-11T06:50:58;25.50;62.40
12604;DHT22;6367;52.508;13.284;2022-08-11T06:53:51;26.10;60.70
12604;DHT22;6367;52.508;13.284;2022-08-11T06:56:29;26.50;59.80
12604;DHT22;6367;52.508;13.284;2022-08-11T06:59:15;26.80;59.40
12604;DHT22;6367;52.508;13.284;2022-08-11T07:02:11;27.10;58.80
12604;DHT22;6367;52.508;13.284;2022-08-11T07:13:54;27.50;58.00
12604;DHT22;6367;52.508;13.284;2022-08-11T07:16:42;27.90;57.90
12604;DHT22;6367;52.508;13.284;2022-08-11T07:19:09;27.60;57.80
12604;DHT22;6367;52.508;13.284;2022-08-11T07:21:55;27.70;57.60
12604;DHT22;6367;52.508;13.284;2022-08-11T07:24:54;27.60;57.70
12604;DHT22;6367;52.508;13.284;2022-08-11T07:27:43;27.60;57.50
12604;DHT22;6367;52.508;13.284;2022-08-11T07:30:29;27.40;57.90
12604;DHT22;6367;52.508;13.284;2022-08-11T07:32:58;27.30;58.10
12604;DHT22;6367;52.508;13.284;2022-08-11T07:35:34;27.20;58.50
12604;DHT22;6367;52.508;13.284;2022-08-11T07:38:06;27.20;58.30
12604;DHT22;6367;52.508;13.284;2022-08-11T07:40:33;27.20;58.90
12604;DHT22;6367;52.508;13.284;2022-08-11T07:42:59;27.30;58.80
12604;DHT22;6367;52.508;13.284;2022-08-11T07:45:27;27.30;59.10
12604;DHT22;6367;52.508;13.284;2022-08-11T07:48:13;27.80;59.30
12604;DHT22;6367;52.508;13.284;2022-08-11T07:50:58;27.30;58.70
12604;DHT22;6367;52.508;13.284;2022-08-11T07:53:45;27.40;57.90
12604;DHT22;6367;52.508;13.284;2022-08-11T07:56:11;27.40;57.90
12604;DHT22;6367;52.508;13.284;2022-08-11T07:58:40;27.50;58.50
12604;DHT22;6367;52.508;13.284;2022-08-11T08:01:26;27.60;58.70
12604;DHT22;6367;52.508;13.284;2022-08-11T08:04:15;27.70;57.50
12604;DHT22;6367;52.508;13.284;2022-08-11T08:07:02;27.80;57.50
12604;DHT22;6367;52.508;13.284;2022-08-11T08:09:48;27.90;57.30
12604;DHT22;6367;52.508;13.284;2022-08-11T08:12:33;27.90;57.50
12604;DHT22;6367;52.508;13.284;2022-08-11T08:15:20;28.00;56.40
12604;DHT22;6367;52.508;13.284;2022-08-11T08:18:05;28.20;56.40
12604;DHT22;6367;52.508;13.284;2022-08-11T08:20:40;28.20;56.20
12604;DHT22;6367;52.508;13.284;2022-08-11T08:23:08;28.20;56.50
12604;DHT22;6367;52.508;13.284;2022-08-11T08:25:35;28.20;55.70
12604;DHT22;6367;52.508;13.284;2022-08-11T08:28:06;28.30;55.30
12604;DHT22;6367;52.508;13.284;2022-08-11T08:30:35;28.30;55.40
12604;DHT22;6367;52.508;13.284;2022-08-11T08:33:18;28.40;55.60
12604;DHT22;6367;52.508;13.284;2022-08-11T08:35:44;28.40;55.30
12604;DHT22;6367;52.508;13.284;2022-08-11T08:38:13;28.50;54.80
12604;DHT22;6367;52.508;13.284;2022-08-11T08:40:41;28.40;55.20
12604;DHT22;6367;52.508;13.284;2022-08-11T08:43:12;28.60;55.80
12604;DHT22;6367;52.508;13.284;2022-08-11T08:45:40;28.70;54.90
12604;DHT22;6367;52.508;13.284;2022-08-11T08:48:13;28.70;54.60
12604;DHT22;6367;52.508;13.284;2022-08-11T08:50:44;28.80;54.80
12604;DHT22;6367;52.508;13.284;2022-08-11T08:53:34;28.90;54.50
12604;DHT22;6367;52.508;13.284;2022-08-11T08:56:01;29.10;54.40
12604;DHT22;6367;52.508;13.284;2022-08-11T08:58:28;29.10;54.10
12604;DHT22;6367;52.508;13.284;2022-08-11T09:00:56;29.10;53.90
12604;DHT22;6367;52.508;13.284;2022-08-11T09:03:23;29.20;53.70
12604;DHT22;6367;52.508;13.284;2022-08-11T09:05:53;29.20;53.90
12604;DHT22;6367;52.508;13.284;2022-08-11T09:08:19;29.50;53.60
12604;DHT22;6367;52.508;13.284;2022-08-11T09:10:46;29.50;53.40
12604;DHT22;6367;52.508;13.284;2022-08-11T09:13:34;29.60;53.40
12604;DHT22;6367;52.508;13.284;2022-08-11T09:16:02;29.70;52.50
12604;DHT22;6367;52.508;13.284;2022-08-11T09:18:30;29.80;51.90
12604;DHT22;6367;52.508;13.284;2022-08-11T09:20:57;29.90;52.00
12604;DHT22;6367;52.508;13.284;2022-08-11T09:23:24;29.80;52.40
12604;DHT22;6367;52.508;13.284;2022-08-11T09:26:09;29.90;52.50
12604;DHT22;6367;52.508;13.284;2022-08-11T09:28:54;30.00;52.80
12604;DHT22;6367;52.508;13.284;2022-08-11T09:31:21;30.10;51.40
12604;DHT22;6367;52.508;13.284;2022-08-11T09:33:50;30.10;51.60
12604;DHT22;6367;52.508;13.284;2022-08-11T09:36:19;30.30;51.30
12604;DHT22;6367;52.508;13.284;2022-08-11T09:39:04;30.50;50.30
12604;DHT22;6367;52.508;13.284;2022-08-11T09:41:49;30.60;50.50
12604;DHT22;6367;52.508;13.284;2022-08-11T09:44:15;30.50;51.00
12604;DHT22;6367;52.508;13.284;2022-08-11T09:47:01;30.50;50.20
12604;DHT22;6367;52.508;13.284;2022-08-11T09:49:27;30.50;49.20
12604;DHT22;6367;52.508;13.284;2022-08-11T09:51:54;30.40;49.30
12604;DHT22;6367;52.508;13.284;2022-08-11T09:54:23;30.60;50.00
12604;DHT22;6367;52.508;13.284;2022-08-11T09:56:52;30.70;50.20
12604;DHT22;6367;52.508;13.284;2022-08-11T09:59:36;30.50;50.00
12604;DHT22;6367;52.508;13.284;2022-08-11T10:02:03;30.80;49.70
12604;DHT22;6367;52.508;13.284;2022-08-11T10:07:03;30.60;48.40
12604;DHT22;6367;52.508;13.284;2022-08-11T10:12:24;30.40;48.70
12604;DHT22;6367;52.508;13.284;2022-08-11T10:14:56;30.30;49.20
12604;DHT22;6367;52.508;13.284;2022-08-11T10:17:45;30.40;48.60
12604;DHT22;6367;52.508;13.284;2022-08-11T10:20:32;30.30;48.30
12604;DHT22;6367;52.508;13.284;2022-08-11T10:22:59;30.40;49.40
12604;DHT22;6367;52.508;13.284;2022-08-11T10:25:44;30.50;48.60
12604;DHT22;6367;52.508;13.284;2022-08-11T10:28:29;30.50;49.00
12604;DHT22;6367;52.508;13.284;2022-08-11T10:30:56;30.60;49.00
12604;DHT22;6367;52.508;13.284;2022-08-11T10:33:43;30.60;48.90
12604;DHT22;6367;52.508;13.284;2022-08-11T10:36:37;30.70;49.60
12604;DHT22;6367;52.508;13.284;2022-08-11T10:39:22;30.90;48.40
12604;DHT22;6367;52.508;13.284;2022-08-11T10:41:48;31.00;48.40
12604;DHT22;6367;52.508;13.284;2022-08-11T10:44:44;31.00;48.80
12604;DHT22;6367;52.508;13.284;2022-08-11T10:47:12;31.20;49.10
12604;DHT22;6367;52.508;13.284;2022-08-11T10:49:57;31.30;47.20
12604;DHT22;6367;52.508;13.284;2022-08-11T10:52:41;31.30;46.90
12604;DHT22;6367;52.508;13.284;2022-08-11T10:55:27;31.20;48.20
12604;DHT22;6367;52.508;13.284;2022-08-11T10:58:12;31.30;48.60
12604;DHT22;6367;52.508;13.284;2022-08-11T11:00:57;31.40;47.20
12604;DHT22;6367;52.508;13.284;2022-08-11T11:03:28;31.40;46.70
12604;DHT22;6367;52.508;13.284;2022-08-11T11:06:00;31.30;46.90
12604;DHT22;6367;52.508;13.284;2022-08-11T11:08:29;31.40;46.60
12604;DHT22;6367;52.508;13.284;2022-08-11T11:11:32;31.40;46.40
12604;DHT22;6367;52.508;13.284;2022-08-11T11:14:19;31.30;47.30
12604;DHT22;6367;52.508;13.284;2022-08-11T11:17:05;31.30;47.60
12604;DHT22;6367;52.508;13.284;2022-08-11T11:19:57;31.30;47.20
12604;DHT22;6367;52.508;13.284;2022-08-11T11:22:25;31.30;47.80
12604;DHT22;6367;52.508;13.284;2022-08-11T11:30:58;31.30;46.90
12604;DHT22;6367;52.508;13.284;2022-08-11T11:36:27;31.50;46.60
12604;DHT22;6367;52.508;13.284;2022-08-11T11:38:57;31.40;47.00
12604;DHT22;6367;52.508;13.284;2022-08-11T11:41:24;31.40;48.50
12604;DHT22;6367;52.508;13.284;2022-08-11T11:43:54;31.50;48.10
12604;DHT22;6367;52.508;13.284;2022-08-11T11:46:21;31.50;47.30
12604;DHT22;6367;52.508;13.284;2022-08-11T11:48:49;31.60;47.40
12604;DHT22;6367;52.508;13.284;2022-08-11T11:51:15;31.80;45.30
12604;DHT22;6367;52.508;13.284;2022-08-11T11:53:44;32.00;44.90
12604;DHT22;6367;52.508;13.284;2022-08-11T11:56:11;31.90;45.70
12604;DHT22;6367;52.508;13.284;2022-08-11T11:58:38;32.00;45.50
12604;DHT22;6367;52.508;13.284;2022-08-11T12:01:23;32.00;45.70
12604;DHT22;6367;52.508;13.284;2022-08-11T12:03:51;32.00;45.60
12604;DHT22;6367;52.508;13.284;2022-08-11T12:06:21;32.20;45.50
12604;DHT22;6367;52.508;13.284;2022-08-11T12:08:50;32.40;44.60
12604;DHT22;6367;52.508;13.284;2022-08-11T12:11:19;32.40;44.30
12604;DHT22;6367;52.508;13.284;2022-08-11T12:14:06;32.40;44.20
12604;DHT22;6367;52.508;13.284;2022-08-11T12:16:36;32.40;44.10
12604;DHT22;6367;52.508;13.284;2022-08-11T12:19:08;32.40;44.20
12604;DHT22;6367;52.508;13.284;2022-08-11T12:21:36;32.50;44.00
12604;DHT22;6367;52.508;13.284;2022-08-11T12:24:23;32.40;44.10
12604;DHT22;6367;52.508;13.284;2022-08-11T12:27:07;32.40;44.80
12604;DHT22;6367;52.508;13.284;2022-08-11T12:30:05;32.60;44.40
12604;DHT22;6367;52.508;13.284;2022-08-11T12:32:34;32.60;44.60
12604;DHT22;6367;52.508;13.284;2022-08-11T12:35:01;32.80;44.30
12604;DHT22;6367;52.508;13.284;2022-08-11T12:37:35;32.80;44.50
12604;DHT22;6367;52.508;13.284;2022-08-11T12:40:10;32.80;44.10
12604;DHT22;6367;52.508;13.284;2022-08-11T12:42:58;32.90;43.60
12604;DHT22;6367;52.508;13.284;2022-08-11T12:45:46;32.90;43.30
12604;DHT22;6367;52.508;13.284;2022-08-11T12:48:19;32.90;43.40
12604;DHT22;6367;52.508;13.284;2022-08-11T12:51:09;32.70;43.20
12604;DHT22;6367;52.508;13.284;2022-08-11T12:54:13;32.50;43.30
12604;DHT22;6367;52.508;13.284;2022-08-11T12:56:47;32.40;43.20
12604;DHT22;6367;52.508;13.284;2022-08-11T12:59:34;32.40;43.50
12604;DHT22;6367;52.508;13.284;2022-08-11T13:02:20;32.30;43.50
12604;DHT22;6367;52.508;13.284;2022-08-11T13:05:07;32.30;43.80
12604;DHT22;6367;52.508;13.284;2022-08-11T13:07:36;32.30;43.90
12604;DHT22;6367;52.508;13.284;2022-08-11T13:10:05;32.20;43.80
12604;DHT22;6367;52.508;13.284;2022-08-11T13:12:32;32.20;44.90
12604;DHT22;6367;52.508;13.284;2022-08-11T13:15:22;32.30;44.50
12604;DHT22;6367;52.508;13.284;2022-08-11T13:17:50;32.40;43.10
12604;DHT22;6367;52.508;13.284;2022-08-11T13:20:18;32.40;43.70
12604;DHT22;6367;52.508;13.284;2022-08-11T13:22:47;32.30;44.10
12604;DHT22;6367;52.508;13.284;2022-08-11T13:25:16;32.40;42.60
12604;DHT22;6367;52.508;13.284;2022-08-11T13:27:44;32.30;42.90
12604;DHT22;6367;52.508;13.284;2022-08-11T13:30:12;32.40;43.40
12604;DHT22;6367;52.508;13.284;2022-08-11T13:33:01;32.40;43.60
12604;DHT22;6367;52.508;13.284;2022-08-11T13:35:39;32.50;42.10
12604;DHT22;6367;52.508;13.284;2022-08-11T13:38:06;32.40;42.70
12604;DHT22;6367;52.508;13.284;2022-08-11T13:40:32;32.40;42.30
12604;DHT22;6367;52.508;13.284;2022-08-11T13:42:58;32.40;42.50
12604;DHT22;6367;52.508;13.284;2022-08-11T13:45:25;32.30;42.30
12604;DHT22;6367;52.508;13.284;2022-08-11T13:47:56;32.70;42.60
12604;DHT22;6367;52.508;13.284;2022-08-11T13:50:24;32.30;43.20
12604;DHT22;6367;52.508;13.284;2022-08-11T13:53:11;32.20;43.00
12604;DHT22;6367;52.508;13.284;2022-08-11T13:55:41;32.30;42.90
12604;DHT22;6367;52.508;13.284;2022-08-11T13:58:09;32.30;42.40
12604;DHT22;6367;52.508;13.284;2022-08-11T14:00:36;32.10;42.80
12604;DHT22;6367;52.508;13.284;2022-08-11T14:03:05;32.10;43.40
12604;DHT22;6367;52.508;13.284;2022-08-11T14:05:41;32.10;43.50
12604;DHT22;6367;52.508;13.284;2022-08-11T14:08:15;32.20;43.20
12604;DHT22;6367;52.508;13.284;2022-08-11T14:10:43;32.20;43.30
12604;DHT22;6367;52.508;13.284;2022-08-11T14:13:15;32.10;42.90
12604;DHT22;6367;52.508;13.284;2022-08-11T14:16:07;32.10;43.20
12604;DHT22;6367;52.508;13.284;2022-08-11T14:18:34;32.00;43.20
12604;DHT22;6367;52.508;13.284;2022-08-11T14:21:03;32.10;43.00
12604;DHT22;6367;52.508;13.284;2022-08-11T14:23:50;32.20;42.80
12604;DHT22;6367;52.508;13.284;2022-08-11T14:26:20;32.20;42.40
12604;DHT22;6367;52.508;13.284;2022-08-11T14:31:23;32.00;43.20
12604;DHT22;6367;52.508;13.284;2022-08-11T14:33:53;32.10;42.90
12604;DHT22;6367;52.508;13.284;2022-08-11T14:36:21;32.10;42.40
12604;DHT22;6367;52.508;13.284;2022-08-11T14:38:48;32.10;41.80
12604;DHT22;6367;52.508;13.284;2022-08-11T14:41:17;32.20;41.40
12604;DHT22;6367;52.508;13.284;2022-08-11T14:44:01;31.90;41.60
12604;DHT22;6367;52.508;13.284;2022-08-11T14:46:46;31.90;41.90
12604;DHT22;6367;52.508;13.284;2022-08-11T14:49:37;31.80;42.20
12604;DHT22;6367;52.508;13.284;2022-08-11T14:52:06;31.80;42.00
12604;DHT22;6367;52.508;13.284;2022-08-11T14:54:33;31.80;42.20
12604;DHT22;6367;52.508;13.284;2022-08-11T14:57:19;31.80;41.60
12604;DHT22;6367;52.508;13.284;2022-08-11T14:59:47;31.80;41.30
12604;DHT22;6367;52.508;13.284;2022-08-11T15:02:15;31.80;41.70
12604;DHT22;6367;52.508;13.284;2022-08-11T15:05:00;31.90;41.20
12604;DHT22;6367;52.508;13.284;2022-08-11T15:07:27;31.80;40.90
12604;DHT22;6367;52.508;13.284;2022-08-11T15:10:01;31.80;41.00
12604;DHT22;6367;52.508;13.284;2022-08-11T15:12:29;31.70;40.90
12604;DHT22;6367;52.508;13.284;2022-08-11T15:14:55;31.60;40.70
12604;DHT22;6367;52.508;13.284;2022-08-11T15:17:41;31.60;41.00
12604;DHT22;6367;52.508;13.284;2022-08-11T15:20:16;31.70;40.30
12604;DHT22;6367;52.508;13.284;2022-08-11T15:23:02;31.60;40.80
12604;DHT22;6367;52.508;13.284;2022-08-11T15:26:13;31.60;40.80
12604;DHT22;6367;52.508;13.284;2022-08-11T15:28:45;31.60;40.00
12604;DHT22;6367;52.508;13.284;2022-08-11T15:31:31;31.60;39.90
12604;DHT22;6367;52.508;13.284;2022-08-11T15:34:10;31.60;39.70
12604;DHT22;6367;52.508;13.284;2022-08-11T15:36:58;31.60;39.80
12604;DHT22;6367;52.508;13.284;2022-08-11T15:42:57;31.40;40.70
12604;DHT22;6367;52.508;13.284;2022-08-11T15:45:44;31.40;40.70
12604;DHT22;6367;52.508;13.284;2022-08-11T15:48:23;31.50;39.50
12604;DHT22;6367;52.508;13.284;2022-08-11T15:50:53;31.50;39.30
12604;DHT22;6367;52.508;13.284;2022-08-11T15:53:32;31.40;39.70
12604;DHT22;6367;52.508;13.284;2022-08-11T15:55:59;31.30;39.80
12604;DHT22;6367;52.508;13.284;2022-08-11T15:58:29;31.30;40.30
12604;DHT22;6367;52.508;13.284;2022-08-11T16:01:17;31.30;40.20
12604;DHT22;6367;52.508;13.284;2022-08-11T16:04:08;31.30;39.30
12604;DHT22;6367;52.508;13.284;2022-08-11T16:09:09;31.20;39.30
12604;DHT22;6367;52.508;13.284;2022-08-11T16:11:36;31.30;38.90
12604;DHT22;6367;52.508;13.284;2022-08-11T16:14:04;31.40;38.90
12604;DHT22;6367;52.508;13.284;2022-08-11T16:16:50;31.30;38.60
12604;DHT22;6367;52.508;13.284;2022-08-11T16:19:18;31.10;39.30
12604;DHT22;6367;52.508;13.284;2022-08-11T16:21:44;31.20;39.10
12604;DHT22;6367;52.508;13.284;2022-08-11T16:24:15;31.10;38.90
12604;DHT22;6367;52.508;13.284;2022-08-11T16:26:42;31.10;38.80
12604;DHT22;6367;52.508;13.284;2022-08-11T16:29:10;31.00;38.70
12604;DHT22;6367;52.508;13.284;2022-08-11T16:31:37;31.00;38.60
12604;DHT22;6367;52.508;13.284;2022-08-11T16:34:04;31.00;39.00
12604;DHT22;6367;52.508;13.284;2022-08-11T16:36:51;31.00;38.80
12604;DHT22;6367;52.508;13.284;2022-08-11T16:39:50;31.00;39.00
12604;DHT22;6367;52.508;13.284;2022-08-11T16:42:16;31.00;39.00
12604;DHT22;6367;52.508;13.284;2022-08-11T16:45:00;30.90;39.10
12604;DHT22;6367;52.508;13.284;2022-08-11T16:47:45;30.90;38.90
12604;DHT22;6367;52.508;13.284;2022-08-11T16:50:12;30.90;38.80
12604;DHT22;6367;52.508;13.284;2022-08-11T16:52:38;30.80;39.10
12604;DHT22;6367;52.508;13.284;2022-08-11T16:55:04;31.00;38.70
12604;DHT22;6367;52.508;13.284;2022-08-11T16:57:32;30.80;38.90
12604;DHT22;6367;52.508;13.284;2022-08-11T17:00:17;30.80;39.40
12604;DHT22;6367;52.508;13.284;2022-08-11T17:02:52;30.80;39.10
12604;DHT22;6367;52.508;13.284;2022-08-11T17:05:43;30.70;39.20
12604;DHT22;6367;52.508;13.284;2022-08-11T17:08:36;30.90;38.40
12604;DHT22;6367;52.508;13.284;2022-08-11T17:11:28;30.80;39.00
12604;DHT22;6367;52.508;13.284;2022-08-11T17:14:23;30.80;38.40
12604;DHT22;6367;52.508;13.284;2022-08-11T17:16:50;30.60;38.80
12604;DHT22;6367;52.508;13.284;2022-08-11T17:19:24;30.60;38.70
12604;DHT22;6367;52.508;13.284;2022-08-11T17:21:51;30.60;38.40
12604;DHT22;6367;52.508;13.284;2022-08-11T17:24:39;30.60;38.70
12604;DHT22;6367;52.508;13.284;2022-08-11T17:27:11;30.60;38.70
12604;DHT22;6367;52.508;13.284;2022-08-11T17:29:51;30.60;38.40
12604;DHT22;6367;52.508;13.284;2022-08-11T17:32:22;30.60;38.50
12604;DHT22;6367;52.508;13.284;2022-08-11T17:35:15;30.50;38.80
12604;DHT22;6367;52.508;13.284;2022-08-11T17:38:14;30.30;38.60
12604;DHT22;6367;52.508;13.284;2022-08-11T17:40:44;30.40;38.80
12604;DHT22;6367;52.508;13.284;2022-08-11T17:43:30;30.40;38.70
12604;DHT22;6367;52.508;13.284;2022-08-11T17:46:16;30.40;38.60
12604;DHT22;6367;52.508;13.284;2022-08-11T17:49:02;30.40;38.50
12604;DHT22;6367;52.508;13.284;2022-08-11T17:51:29;30.40;38.70
12604;DHT22;6367;52.508;13.284;2022-08-11T17:54:14;30.30;39.10
12604;DHT22;6367;52.508;13.284;2022-08-11T17:56:59;30.20;39.20
12604;DHT22;6367;52.508;13.284;2022-08-11T17:59:44;30.10;38.90
12604;DHT22;6367;52.508;13.284;2022-08-11T18:02:32;30.00;38.80
12604;DHT22;6367;52.508;13.284;2022-08-11T18:05:19;30.00;38.90
12604;DHT22;6367;52.508;13.284;2022-08-11T18:07:47;30.00;39.00
12604;DHT22;6367;52.508;13.284;2022-08-11T18:10:34;29.90;38.90
12604;DHT22;6367;52.508;13.284;2022-08-11T18:13:20;30.00;38.70
12604;DHT22;6367;52.508;13.284;2022-08-11T18:16:04;29.90;38.80
12604;DHT22;6367;52.508;13.284;2022-08-11T18:18:49;30.00;38.80
12604;DHT22;6367;52.508;13.284;2022-08-11T18:21:35;29.90;38.90
12604;DHT22;6367;52.508;13.284;2022-08-11T18:24:22;29.90;39.10
12604;DHT22;6367;52.508;13.284;2022-08-11T18:27:10;29.80;39.30
12604;DHT22;6367;52.508;13.284;2022-08-11T18:29:56;29.80;39.50
12604;DHT22;6367;52.508;13.284;2022-08-11T18:32:41;29.60;39.70
12604;DHT22;6367;52.508;13.284;2022-08-11T18:35:26;29.60;39.60
12604;DHT22;6367;52.508;13.284;2022-08-11T18:38:12;29.70;39.70
12604;DHT22;6367;52.508;13.284;2022-08-11T18:40:58;29.60;40.00
12604;DHT22;6367;52.508;13.284;2022-08-11T18:43:45;29.50;40.20
12604;DHT22;6367;52.508;13.284;2022-08-11T18:46:37;29.50;40.20
12604;DHT22;6367;52.508;13.284;2022-08-11T18:49:26;29.40;40.30
12604;DHT22;6367;52.508;13.284;2022-08-11T18:52:13;29.40;40.40
12604;DHT22;6367;52.508;13.284;2022-08-11T18:55:00;29.40;40.50
12604;DHT22;6367;52.508;13.284;2022-08-11T18:57:47;29.30;40.60
12604;DHT22;6367;52.508;13.284;2022-08-11T19:00:35;29.20;40.80
12604;DHT22;6367;52.508;13.284;2022-08-11T19:03:20;29.30;40.80
12604;DHT22;6367;52.508;13.284;2022-08-11T19:06:06;29.20;40.90
12604;DHT22;6367;52.508;13.284;2022-08-11T19:08:56;28.90;41.00
12604;DHT22;6367;52.508;13.284;2022-08-11T19:11:41;29.10;41.30
12604;DHT22;6367;52.508;13.284;2022-08-11T19:14:28;29.10;42.10
12604;DHT22;6367;52.508;13.284;2022-08-11T19:17:14;29.00;41.80
12604;DHT22;6367;52.508;13.284;2022-08-11T19:20:00;29.00;41.80
12604;DHT22;6367;52.508;13.284;2022-08-11T19:22:47;29.00;42.10
12604;DHT22;6367;52.508;13.284;2022-08-11T19:25:33;28.90;42.20
12604;DHT22;6367;52.508;13.284;2022-08-11T19:28:19;28.90;42.40
12604;DHT22;6367;52.508;13.284;2022-08-11T19:31:07;28.90;42.50
12604;DHT22;6367;52.508;13.284;2022-08-11T19:34:08;28.80;42.80
12604;DHT22;6367;52.508;13.284;2022-08-11T19:36:54;28.90;42.80
12604;DHT22;6367;52.508;13.284;2022-08-11T19:39:39;28.80;42.90
12604;DHT22;6367;52.508;13.284;2022-08-11T19:42:25;28.60;43.10
12604;DHT22;6367;52.508;13.284;2022-08-11T19:45:10;28.60;43.20
12604;DHT22;6367;52.508;13.284;2022-08-11T19:47:55;28.60;43.20
12604;DHT22;6367;52.508;13.284;2022-08-11T19:50:40;28.50;43.50
12604;DHT22;6367;52.508;13.284;2022-08-11T19:53:26;28.50;43.70
12604;DHT22;6367;52.508;13.284;2022-08-11T19:56:12;28.40;43.70
12604;DHT22;6367;52.508;13.284;2022-08-11T19:58:57;28.40;43.80
12604;DHT22;6367;52.508;13.284;2022-08-11T20:01:41;28.40;43.80